Airfield :
LOGIN :

Register | Disclaimer

   EN    FR    IT 

 










Legend :    VFR   Marginal VFR   IFR   Intensive IFR   Very Intensive IFR
Visi :
Ceiling :
>= 8 km
>= 3000ft
5 to 8 km
1000 to 3000 ft
1500m to 5 km
500 to 1000 ft
800 to 1500m
200 to 500 ft
< 800m
< 200 ft
Symbols :   Thunderstorms  Fog  Heavy snow  Heavy precipitations  Wind > 20 kt
SIGMETs :     Misc.  Thunderstorms  Icing  Turbulence  Mountain Waves  Volcanic Ashes






- Airport Elevation : 86 ft


LERT - Rota Navy

CURRENT METAR :
  • 291030Z 28014KT 250V330 9999 BKN030 20/12 Q1015 NOSIG

EXPIRED METARs :
  • 291000Z 29016KT 260V330 9999 SCT030 21/12 Q1015 NOSIG
  • 290930Z 29014KT 250V330 9999 FEW025 20/12 Q1015 NOSIG
  • 290900Z 30014KT 260V340 9999 FEW025 20/12 Q1015 NOSIG
  • 290830Z 30016KT 260V010 9999 FEW025 19/12 Q1015 NOSIG
  • 290800Z 29012KT 260V340 9999 FEW025 19/12 Q1015 NOSIG

TAF TAF LERT
Valid from the 29 at 09:00 until the 30 at 09:00 UTC


290800Z 2909/3009 31014KT 9999 FEW040 TX24/2915Z TN14/3006Z
BECMG 2911/2914 25018KT
PROB40
TEMPO 2914/2919 26020G30KT
BECMG 2921/2924 33012KT
BECMG 3006/3009 03010KT



MET'MAP, your aeronautical weather chart ! - Copyright ORBIFLY December 2007 - Disclaimer

ORBIFLY MET'MAP TEAM :

Programming & Development : Alexandra Zaïnal
Original concept : Baudouin d'Aumeries
Technical & hardware support : Manuel Goepfert
Assistance : Marc-Olivier Méhu




SOURCES & CREDITS :

   NOAA